createdAt,value
2019-05-13T00:02:24.768Z,7.50
2019-05-13T00:04:54.118Z,7.50
2019-05-13T00:07:23.966Z,7.40
2019-05-13T00:09:54.371Z,7.40
2019-05-13T00:12:24.049Z,7.40
2019-05-13T00:14:53.973Z,7.40
2019-05-13T00:17:23.792Z,7.30
2019-05-13T00:19:53.316Z,7.30
2019-05-13T00:22:23.406Z,7.30
2019-05-13T00:24:54.228Z,7.20
2019-05-13T00:27:23.803Z,7.20
2019-05-13T00:29:53.539Z,7.10
2019-05-13T00:32:23.716Z,7.10
2019-05-13T00:34:53.472Z,7.10
2019-05-13T00:37:24.442Z,7.10
2019-05-13T00:39:54.317Z,7.10
2019-05-13T00:42:24.580Z,7.10
2019-05-13T00:44:54.077Z,7.10
2019-05-13T00:47:23.678Z,7.00
2019-05-13T00:49:54.114Z,7.00
2019-05-13T00:52:23.600Z,7.00
2019-05-13T00:54:53.462Z,7.00
2019-05-13T00:57:23.791Z,6.90
2019-05-13T00:59:54.122Z,6.90
2019-05-13T01:02:24.303Z,6.90
2019-05-13T01:04:53.681Z,6.80
2019-05-13T01:07:28.625Z,6.80
2019-05-13T01:09:53.985Z,6.80
2019-05-13T01:12:23.840Z,6.80
2019-05-13T01:14:53.497Z,6.70
2019-05-13T01:17:23.612Z,6.70
2019-05-13T01:19:53.767Z,6.70
2019-05-13T01:22:23.903Z,6.60
2019-05-13T01:24:54.159Z,6.60
2019-05-13T01:27:23.990Z,6.50
2019-05-13T01:29:53.552Z,6.50
2019-05-13T01:32:23.828Z,6.50
2019-05-13T01:34:53.995Z,6.50
2019-05-13T01:37:38.831Z,6.40
2019-05-13T01:39:54.667Z,6.40
2019-05-13T01:42:24.203Z,6.40
2019-05-13T01:44:53.991Z,6.40
2019-05-13T01:47:24.099Z,6.30
2019-05-13T01:49:54.290Z,6.30
2019-05-13T01:52:23.841Z,6.30
2019-05-13T01:54:54.328Z,6.20
2019-05-13T01:57:24.004Z,6.20
2019-05-13T01:59:53.768Z,6.10
2019-05-13T02:02:24.239Z,6.10
2019-05-13T02:04:53.700Z,6.00
2019-05-13T02:07:24.439Z,6.00
2019-05-13T02:09:54.371Z,6.00
2019-05-13T02:12:24.148Z,6.00
2019-05-13T02:14:53.558Z,6.00
2019-05-13T02:17:23.440Z,6.00
2019-05-13T02:19:54.098Z,6.00
2019-05-13T02:22:24.758Z,5.90
2019-05-13T02:24:54.311Z,5.90
2019-05-13T02:27:25.534Z,5.90
2019-05-13T02:29:55.231Z,5.90
2019-05-13T02:32:24.604Z,5.80
2019-05-13T02:34:53.994Z,5.80
2019-05-13T02:37:23.444Z,5.80
2019-05-13T02:39:53.256Z,5.70
2019-05-13T02:42:23.132Z,5.70
2019-05-13T02:44:53.117Z,5.60
2019-05-13T02:47:22.949Z,5.60
2019-05-13T02:49:53.402Z,5.50
2019-05-13T02:52:22.884Z,5.40
2019-05-13T02:54:52.942Z,5.40
2019-05-13T02:57:23.357Z,5.30
2019-05-13T02:59:52.929Z,5.30
2019-05-13T03:02:22.584Z,5.20
2019-05-13T03:04:52.516Z,5.10
2019-05-13T03:07:23.232Z,5.00
2019-05-13T03:09:53.042Z,4.90
2019-05-13T03:12:23.043Z,4.80
2019-05-13T03:14:53.334Z,4.80
2019-05-13T03:17:28.398Z,4.70
2019-05-13T03:19:57.808Z,4.70
2019-05-13T03:22:27.202Z,4.60
2019-05-13T03:24:56.558Z,4.50
2019-05-13T03:27:25.882Z,4.40
2019-05-13T03:29:55.534Z,4.30
2019-05-13T03:32:28.661Z,4.30
2019-05-13T03:34:57.151Z,4.20
2019-05-13T03:37:27.480Z,4.20
2019-05-13T03:39:57.311Z,4.20
2019-05-13T03:42:27.587Z,4.20
2019-05-13T03:44:57.019Z,4.20
2019-05-13T03:47:26.974Z,4.20
2019-05-13T03:50:03.032Z,4.20
2019-05-13T03:52:33.607Z,4.20
2019-05-13T03:55:03.212Z,4.10
2019-05-13T03:57:33.771Z,4.10
2019-05-13T04:00:03.915Z,4.10
2019-05-13T04:02:33.858Z,4.10
2019-05-13T04:05:04.304Z,4.20
2019-05-13T04:07:33.805Z,4.20
2019-05-13T04:10:03.747Z,4.20
2019-05-13T04:12:33.572Z,4.20
2019-05-13T04:15:03.856Z,4.30
2019-05-13T04:17:33.462Z,4.40
2019-05-13T04:20:03.208Z,4.50
2019-05-13T04:22:33.406Z,4.70
2019-05-13T04:25:02.803Z,4.90
2019-05-13T04:27:32.856Z,5.00
2019-05-13T04:30:03.537Z,5.20
2019-05-13T04:32:33.701Z,5.30
2019-05-13T04:35:04.134Z,5.40
2019-05-13T04:37:33.718Z,5.60
2019-05-13T04:40:03.903Z,6.20
2019-05-13T04:42:33.660Z,6.60
2019-05-13T04:45:03.544Z,7.20
2019-05-13T04:47:33.526Z,8.70
2019-05-13T04:50:03.433Z,10.20
2019-05-13T04:52:33.239Z,11.90
2019-05-13T04:55:03.686Z,13.40
2019-05-13T04:57:33.390Z,14.70
2019-05-13T05:00:04.298Z,15.90
2019-05-13T05:03:13.399Z,16.70
2019-05-13T05:06:05.025Z,17.60
2019-05-13T05:09:06.946Z,18.20
2019-05-13T05:12:18.453Z,18.90
2019-05-13T05:15:32.407Z,19.60
2019-05-13T05:18:55.109Z,20.40
2019-05-13T05:21:28.563Z,21.00
2019-05-13T05:24:53.872Z,21.50
2019-05-13T05:27:46.487Z,21.90
2019-05-13T05:30:35.651Z,22.10
2019-05-13T05:33:56.817Z,22.20
2019-05-13T05:36:52.044Z,22.60
2019-05-13T05:39:24.095Z,22.90
2019-05-13T05:41:55.977Z,23.60
2019-05-13T05:44:27.980Z,23.90
2019-05-13T05:47:02.165Z,23.90
2019-05-13T05:49:32.040Z,23.80
2019-05-13T05:52:04.729Z,24.00
2019-05-13T05:54:36.427Z,24.20
2019-05-13T05:57:08.044Z,24.20
2019-05-13T05:59:38.396Z,24.10
2019-05-13T06:02:08.915Z,24.20
2019-05-13T06:04:38.192Z,24.40
2019-05-13T06:07:07.447Z,24.60
2019-05-13T06:09:36.615Z,24.20
2019-05-13T06:12:06.124Z,24.00
2019-05-13T06:14:35.878Z,23.70
2019-05-13T06:17:05.216Z,23.70
2019-05-13T06:19:34.673Z,23.60
2019-05-13T06:22:04.267Z,23.30
2019-05-13T06:24:33.675Z,22.90
2019-05-13T06:27:03.103Z,22.60
2019-05-13T06:29:32.561Z,22.50
2019-05-13T06:32:18.134Z,22.10
2019-05-13T06:34:33.193Z,22.00
2019-05-13T06:37:02.628Z,21.80
2019-05-13T06:39:32.077Z,21.70
2019-05-13T06:42:02.685Z,21.60
2019-05-13T06:44:32.138Z,21.30
2019-05-13T06:47:02.561Z,21.30
2019-05-13T06:49:32.569Z,21.00
2019-05-13T06:52:02.408Z,20.80
2019-05-13T06:54:32.982Z,20.60
2019-05-13T06:57:05.048Z,20.40
2019-05-13T06:59:33.343Z,19.90
2019-05-13T07:02:02.547Z,19.50
2019-05-13T07:04:32.577Z,18.70
2019-05-13T07:07:12.286Z,17.40
2019-05-13T07:09:32.844Z,16.30
2019-05-13T07:12:03.384Z,15.20
2019-05-13T07:14:32.896Z,14.50
2019-05-13T07:17:02.413Z,13.90
2019-05-13T07:19:32.565Z,13.40
2019-05-13T07:22:02.966Z,12.90
2019-05-13T07:24:32.936Z,12.60
2019-05-13T07:27:02.448Z,12.30
2019-05-13T07:29:32.727Z,12.10
2019-05-13T07:32:02.354Z,11.90
2019-05-13T07:34:33.712Z,11.70
2019-05-13T07:37:03.061Z,11.60
2019-05-13T07:39:33.104Z,11.50
2019-05-13T07:42:05.506Z,11.50
2019-05-13T07:44:33.601Z,11.50
2019-05-13T07:47:03.898Z,11.40
2019-05-13T07:49:33.566Z,11.40
2019-05-13T07:52:03.095Z,11.40
2019-05-13T07:54:33.175Z,11.40
2019-05-13T07:57:02.670Z,11.40
2019-05-13T07:59:32.215Z,11.50
2019-05-13T08:02:02.599Z,11.50
2019-05-13T08:04:33.507Z,11.60
2019-05-13T08:07:03.193Z,11.60
2019-05-13T08:09:32.565Z,11.60
2019-05-13T08:12:10.014Z,11.60
2019-05-13T08:14:34.402Z,11.70
2019-05-13T08:17:03.901Z,11.70
2019-05-13T08:19:33.249Z,11.80
2019-05-13T08:22:02.713Z,11.90
2019-05-13T08:24:32.119Z,11.90
2019-05-13T08:27:02.276Z,12.00
2019-05-13T08:29:32.744Z,12.20
2019-05-13T08:32:02.950Z,12.30
2019-05-13T08:34:33.131Z,12.40
2019-05-13T08:37:03.248Z,12.50
2019-05-13T08:39:38.144Z,12.60
2019-05-13T08:42:15.123Z,12.70
2019-05-13T08:44:34.758Z,12.70
2019-05-13T08:47:04.250Z,12.80
2019-05-13T08:49:33.687Z,12.90
2019-05-13T08:52:03.090Z,13.00
2019-05-13T08:54:33.074Z,13.10
2019-05-13T08:57:03.251Z,13.40
2019-05-13T08:59:32.754Z,13.60
2019-05-13T09:02:03.277Z,13.80
2019-05-13T09:04:32.928Z,14.10
2019-05-13T09:07:03.021Z,14.20
2019-05-13T09:09:32.545Z,14.10
2019-05-13T09:14:32.955Z,14.10
2019-05-13T09:17:02.553Z,14.10
2019-05-13T09:19:32.513Z,13.90
2019-05-13T09:22:02.963Z,13.90
2019-05-13T09:24:37.213Z,14.00
2019-05-13T09:27:03.935Z,14.10
2019-05-13T09:29:33.761Z,14.40
2019-05-13T09:32:04.050Z,14.60
2019-05-13T09:34:33.677Z,14.90
2019-05-13T09:37:03.284Z,15.00
2019-05-13T09:39:32.951Z,15.10
2019-05-13T09:42:03.045Z,15.30
2019-05-13T09:44:33.138Z,15.20
2019-05-13T09:47:02.951Z,15.40
2019-05-13T09:49:33.077Z,15.40
2019-05-13T09:52:03.162Z,15.40
2019-05-13T09:54:33.186Z,15.30
2019-05-13T09:57:02.475Z,15.20
2019-05-13T09:59:32.121Z,15.10
2019-05-13T10:02:03.166Z,15.10
2019-05-13T10:04:32.230Z,15.20
2019-05-13T10:07:02.605Z,15.20
2019-05-13T10:09:32.819Z,15.20
2019-05-13T10:12:03.468Z,15.10
2019-05-13T10:14:33.291Z,15.20
2019-05-13T10:17:06.152Z,15.20
2019-05-13T10:19:34.181Z,15.30
2019-05-13T10:22:04.092Z,15.30
2019-05-13T10:24:33.542Z,15.40
2019-05-13T10:27:03.327Z,15.60
2019-05-13T10:29:32.524Z,15.60
2019-05-13T10:32:02.715Z,15.70
2019-05-13T10:34:33.445Z,15.80
2019-05-13T10:37:02.819Z,16.00
2019-05-13T10:39:32.322Z,16.30
2019-05-13T10:42:03.676Z,16.50
2019-05-13T10:44:32.883Z,16.80
2019-05-13T10:47:02.631Z,16.90
2019-05-13T10:49:33.059Z,16.80
2019-05-13T10:52:03.132Z,16.80
2019-05-13T10:54:32.931Z,16.70
2019-05-13T10:57:03.903Z,16.50
2019-05-13T10:59:33.160Z,16.30
2019-05-13T11:02:02.486Z,16.10
2019-05-13T11:04:32.604Z,15.90
2019-05-13T11:07:02.908Z,15.80
2019-05-13T11:09:32.663Z,15.90
2019-05-13T11:12:02.295Z,15.90
2019-05-13T11:14:32.295Z,16.10
2019-05-13T11:17:02.026Z,16.20
2019-05-13T11:19:36.250Z,16.40
2019-05-13T11:22:02.723Z,16.50
2019-05-13T11:24:32.660Z,16.50
2019-05-13T11:27:02.825Z,16.60
2019-05-13T11:29:32.740Z,16.80
2019-05-13T11:32:02.642Z,16.80
2019-05-13T11:34:33.184Z,16.80
2019-05-13T11:37:03.671Z,17.00
2019-05-13T11:39:33.134Z,17.30
2019-05-13T11:42:02.620Z,17.50
2019-05-13T11:44:32.300Z,17.60
2019-05-13T11:47:02.935Z,17.40
2019-05-13T11:49:32.221Z,17.20
2019-05-13T11:52:02.556Z,17.40
2019-05-13T11:54:32.280Z,17.60
2019-05-13T11:57:06.146Z,17.80
2019-05-13T11:59:33.013Z,17.90
2019-05-13T12:02:04.368Z,18.00
2019-05-13T12:04:34.715Z,17.80
2019-05-13T12:07:04.458Z,17.60
2019-05-13T12:09:33.560Z,17.50
2019-05-13T12:12:03.386Z,17.20
2019-05-13T12:14:44.392Z,16.90
2019-05-13T12:17:03.998Z,16.60
2019-05-13T12:19:33.261Z,16.40
2019-05-13T12:22:03.523Z,16.20
2019-05-13T12:24:32.735Z,16.10
2019-05-13T12:27:03.779Z,16.10
2019-05-13T12:29:33.215Z,16.40
2019-05-13T12:32:03.212Z,16.80
2019-05-13T12:34:40.239Z,17.20
2019-05-13T12:37:04.631Z,17.40
2019-05-13T12:39:33.783Z,17.50
2019-05-13T12:42:03.501Z,17.50
2019-05-13T12:44:33.427Z,17.40
2019-05-13T12:47:03.501Z,17.40
2019-05-13T12:49:36.495Z,17.40
2019-05-13T12:52:04.685Z,17.30
2019-05-13T12:54:33.978Z,17.40
2019-05-13T12:57:03.622Z,17.10
2019-05-13T12:59:33.007Z,16.90
2019-05-13T13:02:03.243Z,16.60
2019-05-13T13:04:33.471Z,16.30
2019-05-13T13:07:03.092Z,15.90
2019-05-13T13:09:33.410Z,15.70
2019-05-13T13:12:03.012Z,15.60
2019-05-13T13:14:38.535Z,15.70
2019-05-13T13:17:04.125Z,15.80
2019-05-13T13:19:34.185Z,16.10
2019-05-13T13:22:07.608Z,16.60
2019-05-13T13:24:34.226Z,16.90
2019-05-13T13:27:03.411Z,17.10
2019-05-13T13:29:33.986Z,17.10
2019-05-13T13:32:03.352Z,17.10
2019-05-13T13:34:33.742Z,17.10
2019-05-13T13:37:05.127Z,17.10
2019-05-13T13:39:33.839Z,17.10
2019-05-13T13:42:05.384Z,17.10
2019-05-13T13:44:36.081Z,17.20
2019-05-13T13:47:05.260Z,17.40
2019-05-13T13:49:35.323Z,17.60
2019-05-13T13:52:04.728Z,17.80
2019-05-13T13:54:33.972Z,17.90
2019-05-13T13:57:03.061Z,17.80
2019-05-13T13:59:35.876Z,17.80
2019-05-13T14:02:05.494Z,17.80
2019-05-13T14:04:33.880Z,17.80
2019-05-13T14:06:25.037Z,14.10
2019-05-13T14:09:34.054Z,17.70
2019-05-13T14:12:03.244Z,17.70
2019-05-13T14:14:32.340Z,17.50
2019-05-13T14:17:02.425Z,17.30
2019-05-13T14:19:32.322Z,17.10
2019-05-13T14:22:01.760Z,17.00
2019-05-13T14:24:33.101Z,16.60
2019-05-13T14:27:02.917Z,16.30
2019-05-13T14:29:40.998Z,16.10
2019-05-13T14:32:03.260Z,16.00
2019-05-13T14:34:32.255Z,16.10
2019-05-13T14:37:01.392Z,16.30
2019-05-13T14:39:31.889Z,16.60
2019-05-13T14:42:02.115Z,16.90
2019-05-13T14:44:32.478Z,17.10
2019-05-13T14:47:01.802Z,17.30
2019-05-13T14:49:31.685Z,17.50
2019-05-13T14:52:01.449Z,17.40
2019-05-13T14:54:31.319Z,17.50
2019-05-13T14:57:02.375Z,17.50
2019-05-13T14:59:31.641Z,17.40
2019-05-13T15:02:01.437Z,17.40
2019-05-13T15:04:32.470Z,17.10
2019-05-13T15:07:01.446Z,17.00
2019-05-13T15:09:31.422Z,16.60
2019-05-13T15:12:02.071Z,16.40
2019-05-13T15:14:31.999Z,16.30
2019-05-13T15:17:06.850Z,16.30
2019-05-13T15:19:32.673Z,16.30
2019-05-13T15:22:01.845Z,16.30
2019-05-13T15:24:32.342Z,16.40
2019-05-13T15:27:01.660Z,16.40
2019-05-13T15:29:31.289Z,16.40
2019-05-13T15:32:02.119Z,16.40
2019-05-13T15:34:31.954Z,16.30
2019-05-13T15:37:02.117Z,16.30
2019-05-13T15:39:31.667Z,16.20
2019-05-13T15:42:01.917Z,16.20
2019-05-13T15:44:32.657Z,16.20
2019-05-13T15:47:07.168Z,16.20
2019-05-13T15:49:32.908Z,16.10
2019-05-13T15:52:02.083Z,16.00
2019-05-13T15:54:32.692Z,16.00
2019-05-13T15:57:02.460Z,16.00
2019-05-13T15:59:31.648Z,15.90
2019-05-13T16:02:02.090Z,15.90
2019-05-13T16:04:31.769Z,15.90
2019-05-13T16:07:01.778Z,16.00
2019-05-13T16:09:31.421Z,16.00
2019-05-13T16:12:01.509Z,16.10
2019-05-13T16:14:31.681Z,15.90
2019-05-13T16:17:00.888Z,15.80
2019-05-13T16:19:32.590Z,15.70
2019-05-13T16:22:01.574Z,15.60
2019-05-13T16:24:32.115Z,15.60
2019-05-13T16:27:02.489Z,15.50
2019-05-13T16:29:31.803Z,15.50
2019-05-13T16:32:01.665Z,15.40
2019-05-13T16:34:31.902Z,15.40
2019-05-13T16:37:01.864Z,15.40
2019-05-13T16:39:32.077Z,15.30
2019-05-13T16:42:01.241Z,15.30
2019-05-13T16:44:31.919Z,15.30
2019-05-13T16:47:01.621Z,15.30
2019-05-13T16:49:31.827Z,15.30
2019-05-13T16:52:02.612Z,15.30
2019-05-13T16:54:32.917Z,15.30
2019-05-13T16:57:02.194Z,15.30
2019-05-13T16:59:31.692Z,15.20
2019-05-13T17:02:01.808Z,15.10
2019-05-13T17:04:32.207Z,15.00
2019-05-13T17:07:01.734Z,14.90
2019-05-13T17:09:32.275Z,14.90
2019-05-13T17:12:01.777Z,14.80
2019-05-13T17:14:32.222Z,14.70
2019-05-13T17:17:01.533Z,14.60
2019-05-13T17:19:31.834Z,14.50
2019-05-13T17:22:02.608Z,14.40
2019-05-13T17:24:31.999Z,14.30
2019-05-13T17:27:02.399Z,14.20
2019-05-13T17:29:31.874Z,14.20
2019-05-13T17:32:02.401Z,14.20
2019-05-13T17:34:32.073Z,14.10
2019-05-13T17:37:02.663Z,14.10
2019-05-13T17:39:32.307Z,14.10
2019-05-13T17:42:01.617Z,14.00
2019-05-13T17:44:31.754Z,14.00
2019-05-13T17:47:01.903Z,13.90
2019-05-13T17:49:31.919Z,13.80
2019-05-13T17:52:02.352Z,13.70
2019-05-13T17:54:32.004Z,13.60
2019-05-13T17:57:01.923Z,13.50
2019-05-13T17:59:31.608Z,13.40
2019-05-13T18:02:02.567Z,13.30
2019-05-13T18:04:31.712Z,13.20
2019-05-13T18:07:01.671Z,13.10
2019-05-13T18:09:31.805Z,13.00
2019-05-13T18:12:02.482Z,12.90
2019-05-13T18:14:31.583Z,12.80
2019-05-13T18:17:02.073Z,12.70
2019-05-13T18:19:31.860Z,12.50
2019-05-13T18:22:02.276Z,12.40
2019-05-13T18:24:32.174Z,12.20
2019-05-13T18:27:01.595Z,12.10
2019-05-13T18:29:31.691Z,12.00
2019-05-13T18:32:01.875Z,11.90
2019-05-13T18:34:32.188Z,11.80
2019-05-13T18:37:02.383Z,11.60
2019-05-13T18:39:32.263Z,11.50
2019-05-13T18:42:01.423Z,11.40
2019-05-13T18:44:31.672Z,11.30
2019-05-13T18:47:01.620Z,11.20
2019-05-13T18:49:31.811Z,11.00
2019-05-13T18:52:01.076Z,10.90
2019-05-13T18:54:31.534Z,10.70
2019-05-13T18:57:01.613Z,10.60
2019-05-13T18:59:32.170Z,10.50
2019-05-13T19:02:01.669Z,10.40
2019-05-13T19:04:31.911Z,10.30
2019-05-13T19:07:02.371Z,10.20
2019-05-13T19:09:31.624Z,10.20
2019-05-13T19:12:01.438Z,10.10
2019-05-13T19:14:31.833Z,10.10
2019-05-13T19:17:01.194Z,10.10
2019-05-13T19:19:31.704Z,10.10
2019-05-13T19:22:02.133Z,10.00
2019-05-13T19:24:31.532Z,9.90
2019-05-13T19:27:01.735Z,9.80
2019-05-13T19:29:31.866Z,9.70
2019-05-13T19:32:01.835Z,9.50
2019-05-13T19:34:32.287Z,9.40
2019-05-13T19:37:02.344Z,9.30
2019-05-13T19:39:31.639Z,9.20
2019-05-13T19:42:00.833Z,9.00
2019-05-13T19:44:31.555Z,8.90
2019-05-13T19:47:01.928Z,8.80
2019-05-13T19:49:36.066Z,8.70
2019-05-13T19:52:02.302Z,8.60
2019-05-13T19:54:31.533Z,8.60
2019-05-13T19:57:01.418Z,8.50
2019-05-13T19:59:32.296Z,8.50
2019-05-13T20:02:01.645Z,8.50
2019-05-13T20:04:31.279Z,8.50
2019-05-13T20:07:00.554Z,8.60
2019-05-13T20:09:31.930Z,8.50
2019-05-13T20:12:02.084Z,8.60
2019-05-13T20:14:31.407Z,8.70
2019-05-13T20:17:01.630Z,8.70
2019-05-13T20:19:46.168Z,8.70
2019-05-13T20:22:02.356Z,8.80
2019-05-13T20:24:31.550Z,8.80
2019-05-13T20:27:01.546Z,8.80
2019-05-13T20:29:30.708Z,8.90
2019-05-13T20:32:01.394Z,8.90
2019-05-13T20:34:31.706Z,9.00
2019-05-13T20:37:02.054Z,9.10
2019-05-13T20:39:32.091Z,9.20
2019-05-13T20:42:01.789Z,9.20
2019-05-13T20:44:31.447Z,9.40
2019-05-13T20:47:01.610Z,9.50
2019-05-13T20:49:31.306Z,9.50
2019-05-13T20:52:00.579Z,9.60
2019-05-13T20:54:31.423Z,9.70
2019-05-13T20:57:01.969Z,9.80
2019-05-13T20:59:32.163Z,9.80
2019-05-13T21:02:02.324Z,9.80
2019-05-13T21:04:32.205Z,9.90
2019-05-13T21:07:02.262Z,9.80
2019-05-13T21:09:31.646Z,9.80
2019-05-13T21:12:01.733Z,9.70
2019-05-13T21:14:32.065Z,9.60
2019-05-13T21:17:01.552Z,9.50
2019-05-13T21:19:39.108Z,9.30
2019-05-13T21:22:01.344Z,9.10
2019-05-13T21:24:31.929Z,9.00
2019-05-13T21:27:01.964Z,8.90
2019-05-13T21:29:32.345Z,8.80
2019-05-13T21:32:01.617Z,8.70
2019-05-13T21:34:31.593Z,8.60
2019-05-13T21:37:02.301Z,8.40
2019-05-13T21:39:31.970Z,8.30
2019-05-13T21:42:02.397Z,8.20
2019-05-13T21:44:32.679Z,8.00
2019-05-13T21:47:02.274Z,7.90
2019-05-13T21:49:31.916Z,7.90
2019-05-13T21:52:01.226Z,7.70
2019-05-13T21:54:33.291Z,7.60
2019-05-13T21:57:02.241Z,7.50
2019-05-13T21:59:32.081Z,7.40
2019-05-13T22:02:02.040Z,7.40
2019-05-13T22:04:31.149Z,7.30
2019-05-13T22:07:01.448Z,7.20
2019-05-13T22:09:31.732Z,7.10
2019-05-13T22:12:01.883Z,7.00
2019-05-13T22:14:31.957Z,7.00
2019-05-13T22:17:01.645Z,7.00
2019-05-13T22:19:31.563Z,6.90
2019-05-13T22:22:02.277Z,6.90
2019-05-13T22:24:31.667Z,6.90
2019-05-13T22:27:01.914Z,7.00
2019-05-13T22:29:32.137Z,7.00
2019-05-13T22:32:01.983Z,7.10
2019-05-13T22:34:31.955Z,7.10
2019-05-13T22:37:02.348Z,7.00
2019-05-13T22:39:34.642Z,7.00
2019-05-13T22:42:02.405Z,7.00
2019-05-13T22:44:32.406Z,7.00
2019-05-13T22:47:02.450Z,6.90
2019-05-13T22:49:31.724Z,6.90
2019-05-13T22:52:00.860Z,6.80
2019-05-13T22:54:31.854Z,6.70
2019-05-13T22:57:01.162Z,6.70
2019-05-13T22:59:32.151Z,6.70
2019-05-13T23:02:00.824Z,6.70
2019-05-13T23:04:31.367Z,6.60
2019-05-13T23:07:01.269Z,6.60
2019-05-13T23:09:32.190Z,6.60
2019-05-13T23:12:01.750Z,6.70
2019-05-13T23:14:30.968Z,6.70
2019-05-13T23:17:02.125Z,6.70
2019-05-13T23:19:32.298Z,6.80
2019-05-13T23:22:01.760Z,6.80
2019-05-13T23:24:31.228Z,6.80
2019-05-13T23:27:02.136Z,6.70
2019-05-13T23:29:31.924Z,6.70
2019-05-13T23:34:36.610Z,6.70
2019-05-13T23:37:05.746Z,6.60
2019-05-13T23:39:34.868Z,6.60
2019-05-13T23:42:04.030Z,6.60
2019-05-13T23:44:33.139Z,6.60
2019-05-13T23:47:02.312Z,6.70
2019-05-13T23:49:31.782Z,6.80
2019-05-13T23:52:02.515Z,6.80
2019-05-13T23:54:31.750Z,6.80
2019-05-13T23:57:01.226Z,6.80
2019-05-13T23:59:31.236Z,6.80
